Time;durP1;ratioP1;P1;durP2;ratioP2;P2;SDS_P1;SDS_P2;PMS_P1;PMS_P2;Temp;Humidity;BMP_temperature;BMP_pressure;BME280_temperature;BME280_humidity;BME280_pressure;Samples;Min_cycle;Max_cycle;Signal;HPM_P1;HPM_P2
2023/08/01 00:00:03;;;;;;;12.48;5.63;;;24.00;78.00;;;;;;5025950;28;20320;-55
2023/08/01 00:02:28;;;;;;;11.52;6.40;;;24.00;77.90;;;;;;5025262;28;20049;-55
2023/08/01 00:04:54;;;;;;;8.68;5.78;;;24.00;77.70;;;;;;5024978;28;20057;-55
2023/08/01 00:07:19;;;;;;;12.13;6.32;;;24.00;77.70;;;;;;5008830;28;20140;-55
2023/08/01 00:09:45;;;;;;;11.85;5.93;;;23.90;77.70;;;;;;5025538;28;20022;-55
2023/08/01 00:12:10;;;;;;;14.43;6.68;;;23.90;77.70;;;;;;5027084;28;20513;-56
2023/08/01 00:14:36;;;;;;;12.23;6.25;;;23.90;77.80;;;;;;5024699;28;20033;-55
2023/08/01 00:17:02;;;;;;;11.32;5.68;;;23.90;77.90;;;;;;5025626;28;20033;-55
2023/08/01 00:19:27;;;;;;;12.38;6.00;;;23.90;78.10;;;;;;5026798;28;20458;-55
2023/08/01 00:21:53;;;;;;;10.60;6.05;;;23.90;78.20;;;;;;5025579;28;20029;-55
2023/08/01 00:24:18;;;;;;;10.50;5.88;;;23.90;78.20;;;;;;5025612;28;20367;-55
2023/08/01 00:26:44;;;;;;;15.18;6.45;;;23.80;78.10;;;;;;5026884;28;20049;-55
2023/08/01 00:29:10;;;;;;;12.98;6.93;;;23.80;77.90;;;;;;4992777;28;20022;-55
2023/08/01 00:31:35;;;;;;;12.32;6.45;;;23.80;77.90;;;;;;5025268;28;20084;-55
2023/08/01 00:34:01;;;;;;;8.93;5.95;;;23.80;77.80;;;;;;5026498;28;20127;-55
2023/08/01 00:36:26;;;;;;;13.30;6.25;;;23.80;77.80;;;;;;5026690;28;20026;-55
2023/08/01 00:38:52;;;;;;;8.57;6.18;;;23.80;77.80;;;;;;5025078;28;20117;-55
2023/08/01 00:41:17;;;;;;;10.13;5.70;;;23.80;77.80;;;;;;5025032;28;20053;-55
2023/08/01 00:43:43;;;;;;;9.45;5.88;;;23.80;77.80;;;;;;5026457;28;20030;-55
2023/08/01 00:46:09;;;;;;;11.85;5.47;;;23.80;77.80;;;;;;5025000;28;20402;-55
2023/08/01 00:48:34;;;;;;;9.25;5.65;;;23.80;77.70;;;;;;5022984;28;20442;-56
2023/08/01 00:51:04;;;;;;;10.27;5.82;;;23.80;77.60;;;;;;5017313;28;20072;-55
2023/08/01 00:53:30;;;;;;;8.68;5.68;;;23.80;77.50;;;;;;5008306;28;20419;-55
2023/08/01 00:55:55;;;;;;;11.73;5.47;;;23.80;77.40;;;;;;5003890;28;20041;-55
2023/08/01 00:58:21;;;;;;;10.60;5.32;;;23.80;77.40;;;;;;5020187;28;20042;-55
2023/08/01 01:00:47;;;;;;;8.20;5.85;;;23.80;77.20;;;;;;5004627;28;20050;-55
2023/08/01 01:03:13;;;;;;;9.30;5.65;;;23.80;77.10;;;;;;5012620;28;20044;-55
2023/08/01 01:05:40;;;;;;;12.07;5.53;;;23.80;77.00;;;;;;5023411;28;20034;-55
2023/08/01 01:08:05;;;;;;;8.40;5.28;;;23.80;77.00;;;;;;5008314;28;20029;-55
2023/08/01 01:10:31;;;;;;;10.20;5.20;;;23.80;76.90;;;;;;5023904;28;20034;-55
2023/08/01 01:12:56;;;;;;;8.20;5.10;;;23.80;76.80;;;;;;5008162;28;20037;-57
2023/08/01 01:15:22;;;;;;;11.35;5.82;;;23.80;76.80;;;;;;5023908;28;20057;-56
2023/08/01 01:17:48;;;;;;;12.73;5.60;;;23.80;76.80;;;;;;5024425;28;20098;-55
2023/08/01 01:20:13;;;;;;;13.30;5.68;;;23.80;76.70;;;;;;5024202;28;20044;-55
2023/08/01 01:22:39;;;;;;;10.38;5.38;;;23.70;76.70;;;;;;5024239;28;20026;-55
2023/08/01 01:25:05;;;;;;;6.47;5.05;;;23.80;76.80;;;;;;5007737;28;20118;-55
2023/08/01 01:27:30;;;;;;;7.60;5.60;;;23.70;76.70;;;;;;5007357;28;20022;-56
2023/08/01 01:29:56;;;;;;;8.38;5.20;;;23.70;77.40;;;;;;5024302;28;20026;-55
2023/08/01 01:32:22;;;;;;;13.63;6.00;;;23.70;76.70;;;;;;5007925;28;20026;-56
2023/08/01 01:34:47;;;;;;;8.57;5.88;;;23.70;76.70;;;;;;5025227;28;20033;-55
2023/08/01 01:37:13;;;;;;;9.18;5.88;;;23.70;76.70;;;;;;5024139;28;20488;-55
2023/08/01 01:39:38;;;;;;;10.13;6.07;;;23.70;76.70;;;;;;5024081;28;20026;-55
2023/08/01 01:42:04;;;;;;;11.48;6.25;;;23.70;76.70;;;;;;5025467;28;20041;-55
2023/08/01 01:44:30;;;;;;;9.05;5.80;;;23.70;76.60;;;;;;5023841;28;20029;-55
2023/08/01 01:46:55;;;;;;;8.60;5.75;;;23.70;76.40;;;;;;5025395;28;20029;-55
2023/08/01 01:49:21;;;;;;;6.03;5.30;;;23.70;76.30;;;;;;5024060;28;20030;-55
2023/08/01 01:51:46;;;;;;;9.35;5.35;;;23.70;76.30;;;;;;5023863;28;20041;-55
2023/08/01 01:54:12;;;;;;;9.15;5.93;;;23.70;76.20;;;;;;5025198;28;20053;-55
2023/08/01 01:56:37;;;;;;;9.15;5.38;;;23.70;76.10;;;;;;5025015;28;20033;-55
2023/08/01 01:59:03;;;;;;;8.80;5.40;;;23.70;76.10;;;;;;5023870;28;20049;-55
2023/08/01 02:01:28;;;;;;;6.95;5.45;;;23.70;76.00;;;;;;5023473;28;20100;-55
2023/08/01 02:03:54;;;;;;;6.40;5.45;;;23.70;76.00;;;;;;5023502;28;20096;-55
2023/08/01 02:06:19;;;;;;;9.10;5.68;;;23.70;76.10;;;;;;5025053;28;20045;-55
2023/08/01 02:08:45;;;;;;;7.68;5.72;;;23.70;76.20;;;;;;5025044;28;20030;-55
2023/08/01 02:11:11;;;;;;;7.93;5.43;;;23.70;76.20;;;;;;5024994;28;20030;-55
2023/08/01 02:13:36;;;;;;;9.95;5.22;;;23.70;76.00;;;;;;5024802;28;20119;-55
2023/08/01 02:16:02;;;;;;;9.45;5.95;;;23.60;75.90;;;;;;5023426;28;20087;-55
2023/08/01 02:18:27;;;;;;;7.10;5.55;;;23.60;75.90;;;;;;5024742;28;20030;-55
2023/08/01 02:20:53;;;;;;;6.28;4.88;;;23.70;75.90;;;;;;5024779;28;20112;-55
2023/08/01 02:23:18;;;;;;;8.35;4.68;;;23.60;76.00;;;;;;5024704;28;20342;-55
2023/08/01 02:25:44;;;;;;;8.20;4.60;;;23.60;75.90;;;;;;5023326;28;20096;-55
2023/08/01 02:28:09;;;;;;;7.85;4.53;;;23.60;75.90;;;;;;5023556;28;20029;-55
2023/08/01 02:30:35;;;;;;;6.45;4.63;;;23.60;75.80;;;;;;5023160;28;20577;-55
2023/08/01 02:33:01;;;;;;;6.20;4.93;;;23.60;75.70;;;;;;5020984;28;20021;-55
2023/08/01 02:35:28;;;;;;;8.43;4.68;;;23.60;75.70;;;;;;5023000;28;20045;-54
2023/08/01 02:37:53;;;;;;;7.60;4.43;;;23.60;75.70;;;;;;5021813;28;20049;-55
2023/08/01 02:40:19;;;;;;;5.57;4.55;;;23.60;75.60;;;;;;5024542;28;20029;-56
2023/08/01 02:42:45;;;;;;;6.70;4.50;;;23.50;75.70;;;;;;5022964;28;20049;-55
2023/08/01 02:45:10;;;;;;;8.55;4.68;;;23.60;75.70;;;;;;5022932;28;20038;-56
2023/08/01 02:47:36;;;;;;;5.18;4.45;;;23.50;75.60;;;;;;5023156;28;20099;-55
2023/08/01 02:50:01;;;;;;;5.40;4.43;;;23.50;75.60;;;;;;5021884;28;20049;-55
2023/08/01 02:52:27;;;;;;;8.05;4.25;;;23.50;75.50;;;;;;5003521;28;20030;-55
2023/08/01 02:54:53;;;;;;;8.93;4.43;;;23.50;75.50;;;;;;5023925;28;20054;-55
2023/08/01 02:57:18;;;;;;;5.70;4.30;;;23.60;75.60;;;;;;5024486;28;20037;-55
2023/08/01 02:59:44;;;;;;;5.60;4.50;;;23.50;75.50;;;;;;5006048;28;20084;-55
2023/08/01 03:02:10;;;;;;;7.50;4.38;;;23.50;75.50;;;;;;5005034;28;20030;-55
2023/08/01 03:04:35;;;;;;;6.28;4.13;;;23.50;75.40;;;;;;5022319;28;20026;-55
2023/08/01 03:07:01;;;;;;;7.00;4.28;;;23.50;75.50;;;;;;5019173;28;20034;-55
2023/08/01 03:09:26;;;;;;;6.68;4.10;;;23.50;75.60;;;;;;5004617;28;20046;-55
2023/08/01 03:11:52;;;;;;;6.07;4.38;;;23.50;75.70;;;;;;5004650;28;20049;-55
2023/08/01 03:14:17;;;;;;;5.65;4.10;;;23.40;75.60;;;;;;5019705;28;20030;-55
2023/08/01 03:16:43;;;;;;;5.35;4.32;;;23.40;75.60;;;;;;5036135;28;20038;-55
2023/08/01 03:19:09;;;;;;;7.55;4.68;;;23.50;75.90;;;;;;5036234;28;20034;-55
2023/08/01 03:21:34;;;;;;;7.72;4.10;;;23.50;75.90;;;;;;5036009;28;20521;-55
2023/08/01 03:24:00;;;;;;;5.25;4.45;;;23.40;76.00;;;;;;5004448;28;20054;-55
2023/08/01 03:26:28;;;;;;;7.88;4.03;;;23.40;75.90;;;;;;5036006;28;20070;-55
2023/08/01 03:28:55;;;;;;;6.30;3.90;;;23.50;75.90;;;;;;5004605;28;20035;-55
2023/08/01 03:31:21;;;;;;;12.93;4.80;;;23.50;75.80;;;;;;5004515;28;20125;-55
2023/08/01 03:33:46;;;;;;;48.05;7.85;;;23.40;75.70;;;;;;5004686;28;20141;-55
2023/08/01 03:36:12;;;;;;;44.65;9.60;;;23.40;75.90;;;;;;5036045;28;20030;-55
2023/08/01 03:38:38;;;;;;;39.10;7.20;;;23.40;75.90;;;;;;5004578;28;20566;-55
2023/08/01 03:41:03;;;;;;;26.10;7.25;;;23.40;75.90;;;;;;5035809;28;20039;-55
2023/08/01 03:43:29;;;;;;;35.63;7.63;;;23.40;75.90;;;;;;5019369;28;20037;-55
2023/08/01 03:45:55;;;;;;;34.50;7.22;;;23.40;75.90;;;;;;5035846;28;20152;-55
2023/08/01 03:48:20;;;;;;;30.38;7.30;;;23.40;75.90;;;;;;5036028;28;20034;-55
2023/08/01 03:50:46;;;;;;;21.15;6.45;;;23.40;75.90;;;;;;5007153;28;20047;-55
2023/08/01 03:53:11;;;;;;;21.92;6.18;;;23.40;76.00;;;;;;5007970;28;20082;-55
2023/08/01 03:55:37;;;;;;;33.10;6.57;;;23.40;76.00;;;;;;5006304;28;20446;-56
2023/08/01 03:58:03;;;;;;;33.90;6.90;;;23.40;76.00;;;;;;5007852;28;20034;-55
2023/08/01 04:00:32;;;;;;;28.85;6.93;;;23.40;76.00;;;;;;5043078;28;20048;-54
2023/08/01 04:02:58;;;;;;;24.42;6.38;;;23.30;76.10;;;;;;5029177;28;20044;-55
2023/08/01 04:05:24;;;;;;;31.08;6.30;;;23.30;76.20;;;;;;5027978;28;20038;-55
2023/08/01 04:07:49;;;;;;;22.65;6.80;;;23.30;76.30;;;;;;5027255;28;20453;-56
2023/08/01 04:10:15;;;;;;;28.38;6.40;;;23.30;77.00;;;;;;5009402;28;20034;-55
2023/08/01 04:12:42;;;;;;;21.88;6.40;;;23.30;76.40;;;;;;5027229;28;20034;-55
2023/08/01 04:15:08;;;;;;;26.17;6.85;;;23.30;76.30;;;;;;5027146;28;20446;-55
2023/08/01 04:17:33;;;;;;;21.30;5.72;;;23.30;76.60;;;;;;5025582;28;20025;-56
2023/08/01 04:19:59;;;;;;;26.38;5.93;;;23.30;76.60;;;;;;5027028;28;20171;-55
2023/08/01 04:22:25;;;;;;;59.22;16.02;;;23.30;76.60;;;;;;5026644;28;20060;-55
2023/08/01 04:24:50;;;;;;;40.13;10.90;;;23.30;76.70;;;;;;5025597;28;20026;-55
2023/08/01 04:27:16;;;;;;;43.40;13.25;;;23.30;76.60;;;;;;5041891;28;20506;-55
2023/08/01 04:29:41;;;;;;;50.22;10.02;;;23.30;76.80;;;;;;5026657;28;20029;-55
2023/08/01 04:32:07;;;;;;;23.80;6.05;;;23.30;76.60;;;;;;5025278;28;20038;-55
2023/08/01 04:34:33;;;;;;;34.30;6.75;;;23.30;76.70;;;;;;5025311;28;20022;-55
2023/08/01 04:36:58;;;;;;;21.98;7.32;;;23.30;76.70;;;;;;5026731;28;20104;-55
2023/08/01 04:39:24;;;;;;;32.45;7.15;;;23.30;76.70;;;;;;5025207;28;20061;-55
2023/08/01 04:41:50;;;;;;;21.92;6.57;;;23.30;76.70;;;;;;5026727;28;20053;-55
2023/08/01 04:44:15;;;;;;;24.10;7.35;;;23.30;76.70;;;;;;5026474;28;20026;-55
2023/08/01 04:46:41;;;;;;;19.73;6.60;;;23.30;76.70;;;;;;5025359;28;20037;-55
2023/08/01 04:49:07;;;;;;;26.55;7.55;;;23.30;76.80;;;;;;5022828;28;20018;-55
2023/08/01 04:51:32;;;;;;;20.90;7.13;;;23.30;76.80;;;;;;5026262;28;20033;-55
2023/08/01 04:53:58;;;;;;;22.45;7.28;;;23.30;77.00;;;;;;5023634;28;20033;-55
2023/08/01 04:56:24;;;;;;;18.92;6.70;;;23.20;77.10;;;;;;5024326;28;20068;-55
2023/08/01 04:58:49;;;;;;;19.55;6.63;;;23.20;77.20;;;;;;5024822;28;20087;-56
2023/08/01 05:01:15;;;;;;;20.25;6.30;;;23.20;77.30;;;;;;5025190;28;20042;-56
2023/08/01 05:03:40;;;;;;;21.52;6.70;;;23.20;77.40;;;;;;5008506;28;20030;-56
2023/08/01 05:06:06;;;;;;;18.45;6.35;;;23.20;77.50;;;;;;5024251;28;20040;-55
2023/08/01 05:08:31;;;;;;;17.30;6.35;;;23.10;77.60;;;;;;5026070;28;20482;-56
2023/08/01 05:10:57;;;;;;;29.52;6.30;;;23.10;77.70;;;;;;5025841;28;20026;-56
2023/08/01 05:13:23;;;;;;;22.58;6.75;;;23.10;77.70;;;;;;5027321;28;20042;-56
2023/08/01 05:15:48;;;;;;;15.88;6.05;;;23.10;77.90;;;;;;5010969;28;20113;-54
2023/08/01 05:18:15;;;;;;;17.48;5.80;;;23.10;77.90;;;;;;5024762;28;20034;-55
2023/08/01 05:20:41;;;;;;;20.38;6.13;;;23.10;78.10;;;;;;5026087;28;20044;-55
2023/08/01 05:23:06;;;;;;;23.05;6.22;;;23.10;78.10;;;;;;5008244;28;20505;-56
2023/08/01 05:25:32;;;;;;;20.40;6.47;;;23.00;78.00;;;;;;5024174;28;20052;-56
2023/08/01 05:27:57;;;;;;;22.85;5.80;;;23.00;78.00;;;;;;5025737;28;20021;-56
2023/08/01 05:30:24;;;;;;;17.30;6.00;;;23.00;77.90;;;;;;5024232;28;20433;-56
2023/08/01 05:32:49;;;;;;;15.82;5.95;;;23.00;77.90;;;;;;5025641;28;20052;-56
2023/08/01 05:35:15;;;;;;;21.58;6.07;;;23.00;78.00;;;;;;5024152;28;20407;-56
2023/08/01 05:37:41;;;;;;;11.43;5.60;;;23.00;78.10;;;;;;5025441;28;20352;-56
2023/08/01 05:40:07;;;;;;;10.38;5.53;;;23.00;78.30;;;;;;5024232;28;20034;-56
2023/08/01 05:42:33;;;;;;;16.13;5.32;;;22.90;78.40;;;;;;5023938;28;20022;-56
2023/08/01 05:44:58;;;;;;;14.05;5.30;;;22.90;78.40;;;;;;5025175;28;20080;-56
2023/08/01 05:47:24;;;;;;;12.60;5.25;;;22.90;78.40;;;;;;5023836;28;20033;-56
2023/08/01 05:49:49;;;;;;;9.60;5.50;;;22.90;78.50;;;;;;5023865;28;20026;-55
2023/08/01 05:52:15;;;;;;;15.15;5.38;;;22.90;78.50;;;;;;5023856;28;20022;-56
2023/08/01 05:54:40;;;;;;;12.73;5.72;;;22.90;78.40;;;;;;5007571;28;20034;-56
2023/08/01 05:57:07;;;;;;;19.17;5.68;;;22.90;78.50;;;;;;5023929;28;20082;-56
2023/08/01 05:59:32;;;;;;;13.32;5.18;;;22.80;78.30;;;;;;5023613;28;20022;-56
2023/08/01 06:01:58;;;;;;;15.73;5.88;;;22.90;78.40;;;;;;5007434;28;20073;-56
2023/08/01 06:04:23;;;;;;;15.40;4.80;;;22.90;78.40;;;;;;5024851;28;20041;-56
2023/08/01 06:06:49;;;;;;;13.15;5.57;;;22.80;78.40;;;;;;5023807;28;20041;-56
2023/08/01 06:09:14;;;;;;;9.75;5.10;;;22.80;78.60;;;;;;5023775;28;20544;-56
2023/08/01 06:11:40;;;;;;;11.45;5.50;;;22.80;78.80;;;;;;5023006;28;20053;-56
2023/08/01 06:14:05;;;;;;;9.35;5.10;;;22.80;78.90;;;;;;5024852;28;20026;-56
2023/08/01 06:16:31;;;;;;;8.35;4.47;;;22.80;79.00;;;;;;5023503;28;20033;-56
2023/08/01 06:18:56;;;;;;;9.05;4.65;;;22.80;79.10;;;;;;5024896;28;20034;-56
2023/08/01 06:21:22;;;;;;;10.38;4.68;;;22.80;79.20;;;;;;5023585;28;20137;-56
2023/08/01 06:23:48;;;;;;;14.63;5.63;;;22.80;79.30;;;;;;5023295;28;20056;-56
2023/08/01 06:26:15;;;;;;;14.68;4.85;;;22.70;79.30;;;;;;5006884;28;20034;-56
2023/08/01 06:28:41;;;;;;;11.60;4.38;;;22.70;79.50;;;;;;5007170;28;20046;-56
2023/08/01 06:31:06;;;;;;;12.27;5.10;;;22.70;80.10;;;;;;5007549;28;20030;-56
2023/08/01 06:33:32;;;;;;;8.40;4.20;;;22.70;80.40;;;;;;5023211;28;20049;-56
2023/08/01 06:35:57;;;;;;;11.13;4.90;;;22.70;80.30;;;;;;5023333;28;20037;-56
2023/08/01 06:38:23;;;;;;;9.35;4.68;;;22.70;80.40;;;;;;5022677;28;20413;-56
2023/08/01 06:40:48;;;;;;;13.05;4.63;;;22.70;80.50;;;;;;5015164;28;20085;-55
2023/08/01 06:43:14;;;;;;;6.88;4.40;;;22.70;80.90;;;;;;5013842;28;20037;-55
2023/08/01 06:45:39;;;;;;;8.30;4.20;;;22.70;81.30;;;;;;5023072;28;20034;-55
2023/08/01 06:48:05;;;;;;;10.20;4.28;;;22.60;82.00;;;;;;5023032;28;20085;-55
2023/08/01 06:50:30;;;;;;;7.45;4.20;;;22.60;81.70;;;;;;5019311;28;20034;-55
2023/08/01 06:52:56;;;;;;;6.30;3.72;;;22.60;81.90;;;;;;5022396;28;20068;-55
2023/08/01 06:55:21;;;;;;;7.45;4.40;;;22.60;82.00;;;;;;5023231;28;20046;-55
2023/08/01 06:57:47;;;;;;;8.00;4.55;;;22.60;81.80;;;;;;5023309;28;20037;-56
2023/08/01 07:00:13;;;;;;;6.22;4.15;;;22.60;81.80;;;;;;5022641;28;20049;-56
2023/08/01 07:02:38;;;;;;;7.85;4.18;;;22.60;82.10;;;;;;5022612;28;20034;-55
2023/08/01 07:05:04;;;;;;;9.43;4.32;;;22.60;82.20;;;;;;5024110;28;20116;-55
2023/08/01 07:07:30;;;;;;;5.65;3.70;;;22.60;82.30;;;;;;5023092;28;20066;-55
2023/08/01 07:09:55;;;;;;;7.38;3.95;;;22.50;82.40;;;;;;5024085;28;20022;-56
2023/08/01 07:12:21;;;;;;;6.07;3.58;;;22.50;82.60;;;;;;5022936;28;20034;-55
2023/08/01 07:14:46;;;;;;;5.60;3.63;;;22.50;82.60;;;;;;5022872;28;20070;-55
2023/08/01 07:17:12;;;;;;;5.22;3.60;;;22.50;83.40;;;;;;5024355;28;20026;-55
2023/08/01 07:19:38;;;;;;;7.93;3.53;;;22.50;82.90;;;;;;5022977;28;20030;-56
2023/08/01 07:22:03;;;;;;;7.15;3.88;;;22.50;83.10;;;;;;5024341;28;20060;-55
2023/08/01 07:24:29;;;;;;;7.63;3.95;;;22.50;83.10;;;;;;5009063;28;20030;-55
2023/08/01 07:26:54;;;;;;;7.45;3.67;;;22.50;83.30;;;;;;5026420;28;20132;-55
2023/08/01 07:29:20;;;;;;;6.55;3.50;;;22.40;83.20;;;;;;5010215;28;20022;-55
2023/08/01 07:31:45;;;;;;;5.72;3.53;;;22.40;83.20;;;;;;5027662;28;20034;-55
2023/08/01 07:34:11;;;;;;;7.35;3.60;;;22.40;83.10;;;;;;5027849;28;20087;-55
2023/08/01 07:36:37;;;;;;;8.50;3.60;;;22.40;83.20;;;;;;5027909;28;20091;-55
2023/08/01 07:39:03;;;;;;;6.03;3.15;;;22.40;83.20;;;;;;5027772;28;20033;-55
2023/08/01 07:41:28;;;;;;;5.00;3.25;;;22.30;83.10;;;;;;5026290;28;20117;-55
2023/08/01 07:43:54;;;;;;;5.53;3.35;;;22.30;83.00;;;;;;5026261;28;20034;-55
2023/08/01 07:46:19;;;;;;;5.97;3.20;;;22.30;82.90;;;;;;5026398;28;20049;-55
2023/08/01 07:48:45;;;;;;;3.83;2.78;;;22.30;82.90;;;;;;5027424;28;20056;-55
2023/08/01 07:51:11;;;;;;;5.60;3.53;;;22.30;82.90;;;;;;5027623;28;20030;-55
2023/08/01 07:53:37;;;;;;;7.63;3.30;;;22.30;82.80;;;;;;5026032;28;20056;-56
2023/08/01 07:56:02;;;;;;;5.28;3.10;;;22.30;82.70;;;;;;5009772;28;20053;-56
2023/08/01 07:58:29;;;;;;;5.70;3.20;;;22.30;82.60;;;;;;5007195;28;20026;-56
2023/08/01 08:00:54;;;;;;;5.43;3.60;;;22.30;82.60;;;;;;5026286;28;20037;-55
2023/08/01 08:03:22;;;;;;;5.00;3.28;;;22.30;82.70;;;;;;5024978;28;20034;-55
2023/08/01 08:05:48;;;;;;;5.72;3.63;;;22.30;82.80;;;;;;5025627;28;20034;-55
2023/08/01 08:08:14;;;;;;;4.90;3.30;;;22.30;82.70;;;;;;5025145;28;20022;-56
2023/08/01 08:10:39;;;;;;;6.28;3.03;;;22.30;82.60;;;;;;5023859;28;20057;-56
2023/08/01 08:13:05;;;;;;;4.20;3.17;;;22.30;82.60;;;;;;5025232;28;20038;-56
2023/08/01 08:15:34;;;;;;;5.97;3.30;;;22.30;82.60;;;;;;5025358;28;20045;-55
2023/08/01 08:18:01;;;;;;;9.65;4.00;;;22.30;82.60;;;;;;5023746;28;20045;-55
2023/08/01 08:20:26;;;;;;;7.03;3.70;;;22.30;82.60;;;;;;5025546;28;20455;-55
2023/08/01 08:22:52;;;;;;;8.23;4.18;;;22.30;82.50;;;;;;5026386;28;20049;-55
2023/08/01 08:25:17;;;;;;;10.60;3.78;;;22.30;82.50;;;;;;5024402;28;20033;-56
2023/08/01 08:27:43;;;;;;;12.27;3.65;;;22.30;82.60;;;;;;5026430;28;20029;-55
2023/08/01 08:30:09;;;;;;;12.55;4.03;;;22.30;82.60;;;;;;5025242;28;20041;-55
2023/08/01 08:32:35;;;;;;;15.52;4.68;;;22.30;82.70;;;;;;5025040;28;20021;-56
2023/08/01 08:35:00;;;;;;;18.23;5.18;;;22.30;82.80;;;;;;5023060;28;20046;-55
2023/08/01 08:37:26;;;;;;;105.05;15.63;;;22.20;83.00;;;;;;5024958;28;20037;-55
2023/08/01 08:39:51;;;;;;;69.45;10.40;;;22.20;83.10;;;;;;5041221;28;20116;-55
2023/08/01 08:42:20;;;;;;;70.05;9.57;;;22.20;83.10;;;;;;5024655;28;20137;-55
2023/08/01 08:44:46;;;;;;;61.15;9.95;;;22.30;83.30;;;;;;5023200;28;20028;-56
2023/08/01 08:47:12;;;;;;;38.60;8.05;;;22.20;83.30;;;;;;5039955;28;20089;-55
2023/08/01 08:49:38;;;;;;;61.63;9.10;;;22.30;83.60;;;;;;5022444;28;20679;-55
2023/08/01 08:52:04;;;;;;;51.83;7.88;;;22.30;83.70;;;;;;5020097;28;20402;-55
2023/08/01 08:54:30;;;;;;;59.25;9.02;;;22.30;83.90;;;;;;5012638;28;20034;-55
2023/08/01 08:56:55;;;;;;;49.65;9.05;;;22.30;84.20;;;;;;5017367;28;20030;-55
2023/08/01 08:59:21;;;;;;;42.92;8.88;;;22.30;84.50;;;;;;5010338;28;20037;-55
2023/08/01 09:01:46;;;;;;;72.88;9.68;;;22.20;84.50;;;;;;5020360;28;20035;-55
2023/08/01 09:04:12;;;;;;;72.68;10.80;;;22.20;84.90;;;;;;5023148;28;20064;-55
2023/08/01 09:06:43;;;;;;;73.35;11.35;;;22.20;85.00;;;;;;5024001;28;20535;-55
2023/08/01 09:09:11;;;;;;;68.15;9.57;;;22.10;85.00;;;;;;5024372;28;20030;-55
2023/08/01 09:11:45;;;;;;;60.03;10.38;;;22.10;85.10;;;;;;5040088;28;20030;-55
2023/08/01 09:14:11;;;;;;;45.33;10.63;;;22.10;85.30;;;;;;5026118;28;20123;-55
2023/08/01 09:16:37;;;;;;;58.70;10.40;;;21.80;85.40;;;;;;5025663;28;20478;-55
2023/08/01 09:19:02;;;;;;;63.70;11.23;;;22.00;85.90;;;;;;5039145;28;20106;-55
2023/08/01 09:21:30;;;;;;;87.05;12.00;;;22.00;86.00;;;;;;5025278;28;20041;-55
2023/08/01 09:23:56;;;;;;;81.78;13.18;;;22.00;86.20;;;;;;5023104;28;20041;-55
2023/08/01 09:26:21;;;;;;;93.22;12.95;;;22.00;86.30;;;;;;5018351;28;20026;-55
2023/08/01 09:28:56;;;;;;;109.68;13.88;;;22.00;86.50;;;;;;5020823;28;20052;-55
2023/08/01 09:31:36;;;;;;;88.03;12.60;;;22.00;86.50;;;;;;5023281;28;20088;-55
2023/08/01 09:34:06;;;;;;;102.85;14.48;;;22.00;86.60;;;;;;5014685;28;20034;-55
2023/08/01 09:36:32;;;;;;;89.20;13.07;;;22.00;86.80;;;;;;5018266;28;20133;-55
2023/08/01 09:39:01;;;;;;;103.38;14.60;;;22.00;87.20;;;;;;4991395;28;20034;-55
2023/08/01 09:41:27;;;;;;;105.40;15.10;;;22.00;87.30;;;;;;5023375;28;20037;-55
2023/08/01 09:43:52;;;;;;;121.43;15.43;;;22.00;87.40;;;;;;5023474;28;20034;-55
2023/08/01 09:46:18;;;;;;;116.80;15.07;;;22.00;87.10;;;;;;5022265;28;20044;-55
2023/08/01 09:48:43;;;;;;;127.32;16.33;;;22.00;87.00;;;;;;5024317;28;20076;-55
2023/08/01 09:51:09;;;;;;;116.45;17.33;;;22.00;87.20;;;;;;5023419;28;20102;-55
2023/08/01 09:53:52;;;;;;;125.43;18.10;;;22.00;87.40;;;;;;5023976;28;20030;-55
2023/08/01 09:56:22;;;;;;;135.82;19.70;;;22.00;87.60;;;;;;5023554;28;20468;-55
2023/08/01 09:58:48;;;;;;;137.43;20.13;;;22.00;87.90;;;;;;5021579;28;20034;-55
2023/08/01 10:01:19;;;;;;;132.80;20.27;;;22.10;88.00;;;;;;5020908;28;20046;-56
2023/08/01 10:03:47;;;;;;;136.13;18.20;;;22.10;88.00;;;;;;5021378;28;20026;-55
2023/08/01 10:06:18;;;;;;;142.80;18.55;;;22.10;87.90;;;;;;5018803;28;20033;-55
2023/08/01 10:08:43;;;;;;;138.88;16.83;;;22.10;88.00;;;;;;5018492;28;20536;-55
2023/08/01 10:11:09;;;;;;;98.55;15.20;;;22.10;88.50;;;;;;5012641;28;20034;-56
2023/08/01 10:13:34;;;;;;;107.63;15.52;;;22.10;88.70;;;;;;5022034;28;20094;-56
2023/08/01 10:16:00;;;;;;;115.05;15.40;;;22.20;89.00;;;;;;5037916;28;20025;-56
2023/08/01 10:18:26;;;;;;;90.32;12.77;;;22.20;88.50;;;;;;5019974;28;20045;-55
2023/08/01 10:20:51;;;;;;;94.13;14.27;;;22.20;88.80;;;;;;5019536;28;20046;-55
2023/08/01 10:23:17;;;;;;;96.18;14.90;;;22.20;88.80;;;;;;5021808;28;20030;-55
2023/08/01 10:25:42;;;;;;;92.68;13.38;;;22.10;89.70;;;;;;5020654;28;20030;-54
2023/08/01 10:28:08;;;;;;;157.95;17.85;;;22.10;89.80;;;;;;5021798;28;20088;-56
2023/08/01 10:30:34;;;;;;;113.20;14.07;;;22.10;90.00;;;;;;5005672;28;20030;-55
2023/08/01 10:32:59;;;;;;;72.93;12.82;;;22.00;90.00;;;;;;5022419;28;20041;-55
2023/08/01 10:35:38;;;;;;;98.55;14.27;;;22.00;90.00;;;;;;5022837;28;20052;-55
2023/08/01 10:38:07;;;;;;;117.75;14.20;;;22.00;90.20;;;;;;5022055;28;20133;-55
2023/08/01 10:40:34;;;;;;;91.25;13.60;;;21.90;90.20;;;;;;5022152;28;20030;-55
2023/08/01 10:42:59;;;;;;;76.07;11.90;;;21.90;90.40;;;;;;5016890;28;20061;-55
2023/08/01 10:45:27;;;;;;;71.70;12.20;;;21.90;90.70;;;;;;5021796;28;20038;-55
2023/08/01 10:47:52;;;;;;;73.80;10.50;;;21.90;90.50;;;;;;5022863;28;20097;-55
2023/08/01 10:50:18;;;;;;;57.42;8.68;;;21.80;90.70;;;;;;5018702;28;20069;-55
2023/08/01 10:52:43;;;;;;;67.70;9.30;;;21.80;90.60;;;;;;5016401;28;20068;-55
2023/08/01 10:55:09;;;;;;;52.22;8.75;;;21.70;90.70;;;;;;5013124;28;20034;-55
2023/08/01 10:57:36;;;;;;;92.90;12.48;;;21.70;90.70;;;;;;5021456;28;20603;-55
2023/08/01 11:00:04;;;;;;;67.45;10.93;;;21.70;90.80;;;;;;5042505;28;20053;-55
2023/08/01 11:02:30;;;;;;;50.88;9.43;;;21.70;91.00;;;;;;5027649;28;20121;-54
2023/08/01 11:05:02;;;;;;;98.38;12.00;;;21.70;91.00;;;;;;5025625;28;20088;-57
2023/08/01 11:07:28;;;;;;;95.47;12.45;;;21.70;91.10;;;;;;5023986;28;20041;-55
2023/08/01 11:10:10;;;;;;;74.95;10.23;;;21.70;91.10;;;;;;5005395;28;20034;-55
2023/08/01 11:12:37;;;;;;;139.00;16.70;;;21.70;91.10;;;;;;4998628;28;20036;-55
2023/08/01 11:15:05;;;;;;;69.45;9.98;;;21.70;91.00;;;;;;5010113;28;20022;-55
2023/08/01 11:17:31;;;;;;;80.85;10.10;;;21.70;90.90;;;;;;5025150;28;20125;-55
2023/08/01 11:20:04;;;;;;;91.88;11.40;;;21.70;91.00;;;;;;5025801;28;20038;-55
2023/08/01 11:22:30;;;;;;;76.38;10.30;;;21.70;90.90;;;;;;5009179;28;20032;-55
2023/08/01 11:24:56;;;;;;;51.90;9.18;;;21.70;90.90;;;;;;5026391;28;20526;-55
2023/08/01 11:27:21;;;;;;;68.57;8.35;;;21.70;91.00;;;;;;5042232;28;20036;-55
2023/08/01 11:29:47;;;;;;;89.10;10.98;;;21.60;91.00;;;;;;5023571;28;20025;-55
2023/08/01 11:32:12;;;;;;;70.82;9.25;;;21.60;91.10;;;;;;5010578;28;20053;-55
2023/08/01 11:34:44;;;;;;;80.70;11.70;;;21.60;91.30;;;;;;5027184;28;20068;-55
2023/08/01 11:37:10;;;;;;;80.07;11.35;;;21.70;91.50;;;;;;5008999;28;20069;-55
2023/08/01 11:39:36;;;;;;;79.53;10.93;;;21.60;91.70;;;;;;5024516;28;20060;-55
2023/08/01 11:42:03;;;;;;;73.15;10.20;;;21.60;91.80;;;;;;5025927;28;20096;-55
2023/08/01 11:44:29;;;;;;;82.25;10.13;;;21.60;92.00;;;;;;5024325;28;20033;-55
2023/08/01 11:46:55;;;;;;;70.13;9.65;;;21.60;92.00;;;;;;5041707;28;20057;-55
2023/08/01 11:49:20;;;;;;;66.00;10.02;;;21.60;92.10;;;;;;5025638;28;20014;-54
2023/08/01 11:51:46;;;;;;;71.75;11.45;;;21.60;92.10;;;;;;5021375;28;20038;-55
2023/08/01 11:54:13;;;;;;;72.45;10.18;;;21.60;92.20;;;;;;5020297;28;20030;-55
2023/08/01 11:56:39;;;;;;;77.85;10.38;;;21.60;92.30;;;;;;5025035;28;20038;-55
2023/08/01 11:59:15;;;;;;;57.00;10.68;;;21.60;92.20;;;;;;5022930;28;20037;-54
2023/08/01 12:01:41;;;;;;;83.07;11.85;;;21.60;92.80;;;;;;5009970;28;20045;-55
2023/08/01 12:04:07;;;;;;;146.35;16.30;;;21.60;92.40;;;;;;5022111;28;20061;-55
2023/08/01 12:06:32;;;;;;;88.28;12.40;;;21.60;92.60;;;;;;5024909;28;20034;-55
2023/08/01 12:09:07;;;;;;;109.45;14.30;;;21.60;92.70;;;;;;5025390;28;20025;-55
2023/08/01 12:11:32;;;;;;;103.15;13.55;;;21.60;92.90;;;;;;5022865;28;20046;-55
2023/08/01 12:14:06;;;;;;;91.53;13.73;;;21.60;92.90;;;;;;5022678;28;20025;-55
2023/08/01 12:16:32;;;;;;;155.77;16.73;;;21.60;92.90;;;;;;5026490;28;20532;-55
2023/08/01 12:18:57;;;;;;;147.77;16.38;;;21.60;93.20;;;;;;5023900;28;20034;-55
2023/08/01 12:21:23;;;;;;;141.10;16.17;;;21.60;93.10;;;;;;5021376;28;20564;-55
2023/08/01 12:23:49;;;;;;;176.60;21.83;;;21.60;93.10;;;;;;5024243;28;20022;-55
2023/08/01 12:26:14;;;;;;;157.05;17.38;;;21.70;93.80;;;;;;5024663;28;20026;-55
2023/08/01 12:28:40;;;;;;;162.00;17.15;;;21.70;93.70;;;;;;5018192;28;20053;-55